createdAt,value
2019-02-17T00:01:15.355Z,22.30
2019-02-17T00:03:46.162Z,22.90
2019-02-17T00:06:16.443Z,22.60
2019-02-17T00:08:46.730Z,22.53
2019-02-17T00:11:17.037Z,22.03
2019-02-17T00:13:47.851Z,22.47
2019-02-17T00:16:18.713Z,22.20
2019-02-17T00:18:48.949Z,21.70
2019-02-17T00:21:19.701Z,20.63
2019-02-17T00:23:49.879Z,21.10
2019-02-17T00:26:20.297Z,20.33
2019-02-17T00:28:59.108Z,20.90
2019-02-17T00:31:22.551Z,20.43
2019-02-17T00:33:52.797Z,20.17
2019-02-17T00:36:23.102Z,19.67
2019-02-17T00:38:53.363Z,20.23
2019-02-17T00:41:23.655Z,20.43
2019-02-17T00:43:54.266Z,20.27
2019-02-17T00:46:25.513Z,19.43
2019-02-17T00:48:56.259Z,21.33
2019-02-17T00:51:26.503Z,21.30
2019-02-17T00:53:57.005Z,20.63
2019-02-17T00:56:27.257Z,20.93
2019-02-17T00:58:57.757Z,20.10
2019-02-17T01:01:29.196Z,20.93
2019-02-17T01:03:59.592Z,21.37
2019-02-17T01:06:29.879Z,20.13
2019-02-17T01:09:00.493Z,21.50
2019-02-17T01:11:31.932Z,20.80
2019-02-17T01:14:03.396Z,21.33
2019-02-17T01:16:35.400Z,20.27
2019-02-17T01:19:05.991Z,22.10
2019-02-17T01:21:36.262Z,21.17
2019-02-17T01:24:06.738Z,21.37
2019-02-17T01:26:36.992Z,21.03
2019-02-17T01:29:07.450Z,21.57
2019-02-17T01:31:37.689Z,22.50
2019-02-17T01:34:11.097Z,21.90
2019-02-17T01:36:41.357Z,21.73
2019-02-17T01:39:11.595Z,21.50
2019-02-17T01:41:42.283Z,22.63
2019-02-17T01:44:12.520Z,21.73
2019-02-17T01:46:43.361Z,22.67
2019-02-17T01:49:13.614Z,22.87
2019-02-17T01:51:44.100Z,22.40
2019-02-17T01:54:14.348Z,23.83
2019-02-17T01:56:44.863Z,24.10
2019-02-17T01:59:15.086Z,23.53
2019-02-17T02:01:45.374Z,22.03
2019-02-17T02:04:16.135Z,22.70
2019-02-17T02:06:46.369Z,22.87
2019-02-17T02:09:16.877Z,22.83
2019-02-17T02:11:47.117Z,21.80
2019-02-17T02:14:18.347Z,22.63
2019-02-17T02:16:50.315Z,22.60
2019-02-17T02:19:23.425Z,22.77
2019-02-17T02:21:54.220Z,22.07
2019-02-17T02:24:24.563Z,23.00
2019-02-17T02:26:55.194Z,22.50
2019-02-17T02:29:25.516Z,22.77
2019-02-17T02:31:56.268Z,22.13
2019-02-17T02:34:26.543Z,22.40
2019-02-17T02:36:56.958Z,23.20
2019-02-17T02:39:27.240Z,22.17
2019-02-17T02:41:57.575Z,23.57
2019-02-17T02:44:28.358Z,23.27
2019-02-17T02:46:58.768Z,23.83
2019-02-17T02:49:29.367Z,23.27
2019-02-17T02:52:00.249Z,22.93
2019-02-17T02:54:30.606Z,23.80
2019-02-17T02:57:00.871Z,24.23
2019-02-17T02:59:31.455Z,22.87
2019-02-17T03:02:01.738Z,23.23
2019-02-17T03:04:32.503Z,23.37
2019-02-17T03:07:09.249Z,24.07
2019-02-17T03:09:39.545Z,23.73
2019-02-17T03:12:09.820Z,24.20
2019-02-17T03:14:41.699Z,23.00
2019-02-17T03:17:11.976Z,24.17
2019-02-17T03:19:42.261Z,23.77
2019-02-17T03:22:13.330Z,24.97
2019-02-17T03:24:43.582Z,23.47
2019-02-17T03:27:13.897Z,24.53
2019-02-17T03:29:44.560Z,24.63
2019-02-17T03:32:14.815Z,24.27
2019-02-17T03:34:45.058Z,23.57
2019-02-17T03:37:15.510Z,24.80
2019-02-17T03:39:45.782Z,23.13
2019-02-17T03:42:16.047Z,24.07
2019-02-17T03:44:46.502Z,23.77
2019-02-17T03:47:16.757Z,24.10
2019-02-17T03:49:47.363Z,23.47
2019-02-17T03:52:18.352Z,24.27
2019-02-17T03:54:48.585Z,24.27
2019-02-17T03:57:18.817Z,24.13
2019-02-17T03:59:49.372Z,24.07
2019-02-17T04:02:20.799Z,23.10
2019-02-17T04:04:51.021Z,23.40
2019-02-17T04:07:21.592Z,23.53
2019-02-17T04:09:52.142Z,23.10
2019-02-17T04:12:22.839Z,23.97
2019-02-17T04:14:54.426Z,23.90
2019-02-17T04:17:24.749Z,23.03
2019-02-17T04:19:55.038Z,23.30
2019-02-17T04:22:26.203Z,24.07
2019-02-17T04:24:57.756Z,22.83
2019-02-17T04:27:28.072Z,23.97
2019-02-17T04:29:58.321Z,23.77
2019-02-17T04:32:28.678Z,24.27
2019-02-17T04:34:59.329Z,24.63
2019-02-17T04:37:30.081Z,25.30
2019-02-17T04:40:02.461Z,24.43
2019-02-17T04:42:32.935Z,24.40
2019-02-17T04:45:03.511Z,23.60
2019-02-17T04:47:33.818Z,23.07
2019-02-17T04:50:04.514Z,23.53
2019-02-17T04:52:35.406Z,23.30
2019-02-17T04:55:06.323Z,24.93
2019-02-17T04:57:36.579Z,24.13
2019-02-17T05:00:07.978Z,25.00
2019-02-17T05:02:38.405Z,24.23
2019-02-17T05:05:08.640Z,23.33
2019-02-17T05:07:38.934Z,24.80
2019-02-17T05:10:09.348Z,24.33
2019-02-17T05:12:39.945Z,25.40
2019-02-17T05:15:11.119Z,24.63
2019-02-17T05:17:41.680Z,26.00
2019-02-17T05:20:12.089Z,25.97
2019-02-17T05:22:43.591Z,26.63
2019-02-17T05:25:13.838Z,27.27
2019-02-17T05:27:44.317Z,26.60
2019-02-17T05:30:14.854Z,26.90
2019-02-17T05:32:45.398Z,25.83
2019-02-17T05:35:15.662Z,26.37
2019-02-17T05:37:46.156Z,24.90
2019-02-17T05:40:16.394Z,25.83
2019-02-17T05:42:46.647Z,25.33
2019-02-17T05:45:17.133Z,24.83
2019-02-17T05:47:47.300Z,24.67
2019-02-17T05:50:17.879Z,25.10
2019-02-17T05:52:48.118Z,25.53
2019-02-17T05:55:18.470Z,26.33
2019-02-17T05:57:48.861Z,24.43
2019-02-17T06:00:21.737Z,25.60
2019-02-17T06:02:51.986Z,24.37
2019-02-17T06:05:22.597Z,25.33
2019-02-17T06:07:52.924Z,23.50
2019-02-17T06:10:23.667Z,24.97
2019-02-17T06:12:53.896Z,25.20
2019-02-17T06:15:25.323Z,24.13
2019-02-17T06:17:55.632Z,23.77
2019-02-17T06:20:25.879Z,23.37
2019-02-17T06:22:56.643Z,24.67
2019-02-17T06:25:26.904Z,26.37
2019-02-17T06:27:57.651Z,26.23
2019-02-17T06:30:27.894Z,25.10
2019-02-17T06:32:58.400Z,23.73
2019-02-17T06:35:28.651Z,24.23
2019-02-17T06:37:59.476Z,24.20
2019-02-17T06:40:29.709Z,24.73
2019-02-17T06:43:00.238Z,22.60
2019-02-17T06:45:33.140Z,27.10
2019-02-17T06:48:03.588Z,25.37
2019-02-17T06:50:33.852Z,25.37
2019-02-17T06:53:04.799Z,26.03
2019-02-17T06:55:55.644Z,26.23
2019-02-17T06:58:26.125Z,25.67
2019-02-17T07:00:58.546Z,25.33
2019-02-17T07:03:29.072Z,25.67
2019-02-17T07:06:05.430Z,25.87
2019-02-17T07:08:35.988Z,25.83
2019-02-17T07:11:06.242Z,26.10
2019-02-17T07:13:38.529Z,27.23
2019-02-17T07:16:11.344Z,26.77
2019-02-17T07:18:42.363Z,26.67
2019-02-17T07:21:12.639Z,27.33
2019-02-17T07:23:43.276Z,27.97
2019-02-17T07:26:13.579Z,28.30
2019-02-17T07:28:44.642Z,27.80
2019-02-17T07:31:15.084Z,28.77
2019-02-17T07:33:45.790Z,28.63
2019-02-17T07:36:16.092Z,27.90
2019-02-17T07:38:46.593Z,29.30
2019-02-17T07:41:16.984Z,28.63
2019-02-17T07:43:47.946Z,28.57
2019-02-17T07:46:18.245Z,29.17
2019-02-17T07:48:48.953Z,28.17
2019-02-17T07:51:19.208Z,29.27
2019-02-17T07:53:50.687Z,30.47
2019-02-17T07:56:20.982Z,29.43
2019-02-17T07:58:51.494Z,29.03
2019-02-17T08:03:01.231Z,30.43
2019-02-17T08:05:31.714Z,31.35
2019-02-17T08:08:01.975Z,29.63
2019-02-17T08:10:32.459Z,29.77
2019-02-17T08:13:02.698Z,30.50
2019-02-17T08:15:33.209Z,29.77
2019-02-17T08:18:04.955Z,30.30
2019-02-17T08:20:36.595Z,29.17
2019-02-17T08:23:07.164Z,29.07
2019-02-17T08:25:38.125Z,28.43
2019-02-17T08:28:08.350Z,28.60
2019-02-17T08:30:38.844Z,30.13
2019-02-17T08:33:09.102Z,28.57
2019-02-17T08:35:39.391Z,28.43
2019-02-17T08:38:10.137Z,27.07
2019-02-17T08:40:40.462Z,29.63
2019-02-17T08:43:10.715Z,26.63
2019-02-17T08:45:41.145Z,27.30
2019-02-17T08:48:11.439Z,27.80
2019-02-17T08:50:41.720Z,29.23
2019-02-17T08:53:49.865Z,29.47
2019-02-17T08:56:20.519Z,27.57
2019-02-17T08:58:51.059Z,30.50
2019-02-17T09:01:21.323Z,29.80
2019-02-17T09:03:51.579Z,30.13
2019-02-17T09:06:22.192Z,29.07
2019-02-17T09:08:52.559Z,29.50
2019-02-17T09:11:23.573Z,29.47
2019-02-17T09:13:53.860Z,28.40
2019-02-17T09:16:24.327Z,28.00
2019-02-17T09:18:55.343Z,30.40
2019-02-17T09:21:25.998Z,28.73
2019-02-17T09:23:56.374Z,29.30
2019-02-17T09:26:29.550Z,27.93
2019-02-17T09:29:00.412Z,27.70
2019-02-17T09:31:31.921Z,28.57
2019-02-17T09:34:02.247Z,26.43
2019-02-17T09:36:32.678Z,26.67
2019-02-17T09:39:04.902Z,27.73
2019-02-17T09:41:35.815Z,27.73
2019-02-17T09:44:06.578Z,26.57
2019-02-17T09:46:36.840Z,26.90
2019-02-17T09:49:07.325Z,28.37
2019-02-17T09:51:37.758Z,25.77
2019-02-17T09:54:08.386Z,26.60
2019-02-17T09:56:38.998Z,27.10
2019-02-17T09:59:09.750Z,25.97
2019-02-17T10:01:40.026Z,25.80
2019-02-17T10:04:10.384Z,25.43
2019-02-17T10:06:40.678Z,25.53
2019-02-17T10:09:11.304Z,28.47
2019-02-17T10:11:41.715Z,29.23
2019-02-17T10:14:12.330Z,28.67
2019-02-17T10:16:42.578Z,28.10
2019-02-17T10:19:14.018Z,29.10
2019-02-17T10:21:44.245Z,28.57
2019-02-17T10:24:14.564Z,29.43
2019-02-17T10:26:45.712Z,29.13
2019-02-17T10:29:16.418Z,28.10
2019-02-17T10:31:47.179Z,26.63
2019-02-17T10:34:18.084Z,26.63
2019-02-17T10:36:48.342Z,28.37
2019-02-17T10:39:19.194Z,26.87
2019-02-17T10:41:49.451Z,28.43
2019-02-17T10:44:20.199Z,28.20
2019-02-17T10:46:50.582Z,28.33
2019-02-17T10:49:20.961Z,27.87
2019-02-17T10:51:51.278Z,28.03
2019-02-17T10:54:23.123Z,28.03
2019-02-17T10:56:53.912Z,28.23
2019-02-17T10:59:24.483Z,30.10
2019-02-17T11:01:54.734Z,28.37
2019-02-17T11:04:25.386Z,29.50
2019-02-17T11:06:55.658Z,29.93
2019-02-17T11:09:26.425Z,28.00
2019-02-17T11:11:56.693Z,27.53
2019-02-17T11:14:27.181Z,28.40
2019-02-17T11:16:57.476Z,29.27
2019-02-17T11:19:28.543Z,30.03
2019-02-17T11:21:58.906Z,29.77
2019-02-17T11:24:30.647Z,26.97
2019-02-17T11:27:01.457Z,24.93
2019-02-17T11:29:32.032Z,22.77
2019-02-17T11:32:02.285Z,19.13
2019-02-17T11:34:34.766Z,18.67
2019-02-17T11:37:05.018Z,19.47
2019-02-17T11:39:35.539Z,18.80
2019-02-17T11:42:05.841Z,17.93
2019-02-17T11:44:36.545Z,17.77
2019-02-17T11:47:07.449Z,18.80
2019-02-17T11:49:38.259Z,17.37
2019-02-17T11:52:08.493Z,18.17
2019-02-17T11:54:39.017Z,17.33
2019-02-17T11:57:09.190Z,15.60
2019-02-17T11:59:40.071Z,16.50
2019-02-17T12:02:10.318Z,15.70
2019-02-17T12:04:40.851Z,15.03
2019-02-17T12:07:11.258Z,13.83
2019-02-17T12:09:42.183Z,14.40
2019-02-17T12:12:13.737Z,14.37
2019-02-17T12:14:44.602Z,13.50
2019-02-17T12:17:14.818Z,14.27
2019-02-17T12:19:45.999Z,13.27
2019-02-17T12:22:30.563Z,13.77
2019-02-17T12:25:14.855Z,13.23
2019-02-17T12:28:03.467Z,12.43
2019-02-17T12:30:34.038Z,13.10
2019-02-17T12:33:04.323Z,12.97
2019-02-17T12:35:34.792Z,14.07
2019-02-17T12:38:05.055Z,13.43
2019-02-17T12:40:35.532Z,13.50
2019-02-17T12:43:05.787Z,13.23
2019-02-17T12:45:36.287Z,14.53
2019-02-17T12:48:06.571Z,15.00
2019-02-17T12:50:37.354Z,14.43
2019-02-17T12:53:07.671Z,14.30
2019-02-17T12:55:38.095Z,15.57
2019-02-17T12:58:09.033Z,14.67
2019-02-17T13:00:39.774Z,15.20
2019-02-17T13:03:10.097Z,14.10
2019-02-17T13:05:40.509Z,14.63
2019-02-17T13:08:10.900Z,14.67
2019-02-17T13:10:41.274Z,15.67
2019-02-17T13:13:11.567Z,14.57
2019-02-17T13:15:41.995Z,13.87
2019-02-17T13:18:12.247Z,14.80
2019-02-17T13:20:43.498Z,15.40
2019-02-17T13:23:13.717Z,14.67
2019-02-17T13:25:43.976Z,15.37
2019-02-17T13:28:14.958Z,14.37
2019-02-17T13:30:45.221Z,14.77
2019-02-17T13:33:15.562Z,14.90
2019-02-17T13:35:45.945Z,13.83
2019-02-17T13:38:16.320Z,13.90
2019-02-17T13:40:47.013Z,13.17
2019-02-17T13:43:17.308Z,13.13
2019-02-17T13:45:48.980Z,13.13
2019-02-17T13:48:19.258Z,14.10
2019-02-17T13:50:49.749Z,14.43
2019-02-17T13:53:20.002Z,15.77
2019-02-17T13:55:50.812Z,14.83
2019-02-17T13:58:21.489Z,16.13
2019-02-17T14:00:52.191Z,16.47
2019-02-17T14:03:22.502Z,17.13
2019-02-17T14:05:53.089Z,18.70
2019-02-17T14:08:23.327Z,19.20
2019-02-17T14:10:53.956Z,18.20
2019-02-17T14:13:24.301Z,18.20
2019-02-17T14:15:54.693Z,16.67
2019-02-17T14:18:24.960Z,15.77
2019-02-17T14:20:57.314Z,17.70
2019-02-17T14:23:27.590Z,16.00
2019-02-17T14:25:58.070Z,15.70
2019-02-17T14:28:28.778Z,14.93
2019-02-17T14:30:59.465Z,15.33
2019-02-17T14:33:29.687Z,14.17
2019-02-17T14:36:00.333Z,15.17
2019-02-17T14:38:30.618Z,14.60
2019-02-17T14:41:01.133Z,16.20
2019-02-17T14:43:31.514Z,15.83
2019-02-17T14:46:02.052Z,15.57
2019-02-17T14:48:32.355Z,16.50
2019-02-17T14:51:02.701Z,17.03
2019-02-17T14:53:33.050Z,17.03
2019-02-17T14:56:03.530Z,19.53
2019-02-17T14:58:34.306Z,22.03
2019-02-17T15:01:04.914Z,21.77
2019-02-17T15:03:36.265Z,22.97
2019-02-17T15:06:06.840Z,22.47
2019-02-17T15:08:37.115Z,22.23
2019-02-17T15:11:07.381Z,23.30
2019-02-17T15:13:37.850Z,22.90
2019-02-17T15:16:09.922Z,22.90
2019-02-17T15:18:40.364Z,22.87
2019-02-17T15:21:12.156Z,22.50
2019-02-17T15:23:42.412Z,21.97
2019-02-17T15:26:12.742Z,21.37
2019-02-17T15:28:50.677Z,22.47
2019-02-17T15:31:15.697Z,21.90
2019-02-17T15:33:47.141Z,20.13
2019-02-17T15:36:18.329Z,20.70
2019-02-17T15:38:48.597Z,21.90
2019-02-17T15:41:18.880Z,21.80
2019-02-17T15:43:49.381Z,22.27
2019-02-17T15:46:19.652Z,21.37
2019-02-17T15:48:49.894Z,23.07
2019-02-17T15:51:20.670Z,21.27
2019-02-17T15:53:50.927Z,21.70
2019-02-17T15:56:21.200Z,21.90
2019-02-17T15:58:52.271Z,21.90
2019-02-17T16:01:22.565Z,21.00
2019-02-17T16:03:52.992Z,20.23
2019-02-17T16:06:23.300Z,19.77
2019-02-17T16:08:53.609Z,19.77
2019-02-17T16:11:24.274Z,18.67
2019-02-17T16:13:54.540Z,19.03
2019-02-17T16:16:27.226Z,19.50
2019-02-17T16:18:57.458Z,17.57
2019-02-17T16:21:28.868Z,18.53
2019-02-17T16:23:59.027Z,18.40
2019-02-17T16:26:29.321Z,17.50
2019-02-17T16:28:59.820Z,16.80
2019-02-17T16:31:30.112Z,17.07
2019-02-17T16:34:00.463Z,17.40
2019-02-17T16:36:30.823Z,17.33
2019-02-17T16:39:01.093Z,14.40
2019-02-17T16:41:33.031Z,15.33
2019-02-17T16:44:03.612Z,15.70
2019-02-17T16:46:33.900Z,15.63
2019-02-17T16:49:04.204Z,14.60
2019-02-17T16:51:34.766Z,15.10
2019-02-17T16:54:05.193Z,14.80
2019-02-17T16:56:35.448Z,13.90
2019-02-17T16:59:06.162Z,12.17
2019-02-17T17:01:36.463Z,13.67
2019-02-17T17:04:06.950Z,13.40
2019-02-17T17:06:37.224Z,12.93
2019-02-17T17:09:09.534Z,12.40
2019-02-17T17:11:40.421Z,10.70
2019-02-17T17:14:10.916Z,12.50
2019-02-17T17:16:41.216Z,12.20
2019-02-17T17:19:11.471Z,12.53
2019-02-17T17:21:43.111Z,11.87
2019-02-17T17:24:13.450Z,12.33
2019-02-17T17:26:43.714Z,12.03
2019-02-17T17:29:14.766Z,12.40
2019-02-17T17:31:45.074Z,11.97
2019-02-17T17:34:15.507Z,12.90
2019-02-17T17:36:45.967Z,13.17
2019-02-17T17:39:16.351Z,12.87
2019-02-17T17:41:47.120Z,13.67
2019-02-17T17:44:18.791Z,13.80
2019-02-17T17:46:49.121Z,13.87
2019-02-17T17:49:19.629Z,13.57
2019-02-17T17:51:50.148Z,14.53
2019-02-17T17:54:20.430Z,14.37
2019-02-17T17:56:51.813Z,14.10
2019-02-17T17:59:23.191Z,13.47
2019-02-17T18:01:53.511Z,13.80
2019-02-17T18:04:23.905Z,13.47
2019-02-17T18:06:54.335Z,13.67
2019-02-17T18:09:24.620Z,14.40
2019-02-17T18:11:55.244Z,14.67
2019-02-17T18:14:25.733Z,14.97
2019-02-17T18:16:56.272Z,14.60
2019-02-17T18:19:26.843Z,14.40
2019-02-17T18:21:58.369Z,14.07
2019-02-17T18:24:28.900Z,14.40
2019-02-17T18:26:59.617Z,14.47
2019-02-17T18:29:29.894Z,14.20
2019-02-17T18:32:00.788Z,15.93
2019-02-17T18:34:31.554Z,15.20
2019-02-17T18:37:02.046Z,15.80
2019-02-17T18:39:32.340Z,16.10
2019-02-17T18:42:02.621Z,16.67
2019-02-17T18:44:33.212Z,16.23
2019-02-17T18:47:03.559Z,16.20
2019-02-17T18:49:33.933Z,18.07
2019-02-17T18:52:04.606Z,17.73
2019-02-17T18:54:38.447Z,21.13
2019-02-17T18:57:08.759Z,20.93
2019-02-17T18:59:39.569Z,20.90
2019-02-17T19:02:09.860Z,24.10
2019-02-17T19:04:40.330Z,24.87
2019-02-17T19:07:10.711Z,24.00
2019-02-17T19:09:41.403Z,24.87
2019-02-17T19:12:11.729Z,24.63
2019-02-17T19:14:42.433Z,27.10
2019-02-17T19:17:12.716Z,25.10
2019-02-17T19:19:43.508Z,24.53
2019-02-17T19:22:14.578Z,22.00
2019-02-17T19:24:45.191Z,22.20
2019-02-17T19:27:15.701Z,24.23
2019-02-17T19:29:46.547Z,23.37
2019-02-17T19:32:16.855Z,21.80
2019-02-17T19:34:47.393Z,23.17
2019-02-17T19:37:17.788Z,23.37
2019-02-17T19:39:48.387Z,24.67
2019-02-17T19:42:18.699Z,25.93
2019-02-17T19:44:49.393Z,23.63
2019-02-17T19:47:20.858Z,23.40
2019-02-17T19:49:51.343Z,22.13
2019-02-17T19:52:21.647Z,23.07
2019-02-17T19:54:51.962Z,19.60
2019-02-17T19:57:22.259Z,22.43
2019-02-17T19:59:53.204Z,20.63
2019-02-17T20:02:39.980Z,19.40
2019-02-17T20:05:14.572Z,21.70
2019-02-17T20:07:44.829Z,22.87
2019-02-17T20:10:15.588Z,21.03
2019-02-17T20:12:45.875Z,20.77
2019-02-17T20:15:16.346Z,21.93
2019-02-17T20:17:47.783Z,20.73
2019-02-17T20:20:18.187Z,20.57
2019-02-17T20:22:49.410Z,20.63
2019-02-17T20:25:21.175Z,19.03
2019-02-17T20:27:51.476Z,19.47
2019-02-17T20:30:22.379Z,20.87
2019-02-17T20:32:52.796Z,22.10
2019-02-17T20:35:23.327Z,22.00
2019-02-17T20:37:53.671Z,22.37
2019-02-17T20:40:24.384Z,22.90
2019-02-17T20:42:54.821Z,21.33
2019-02-17T20:45:25.519Z,21.73
2019-02-17T20:47:55.857Z,21.20
2019-02-17T20:50:26.506Z,19.57
2019-02-17T20:52:57.090Z,21.17
2019-02-17T20:55:27.563Z,20.97
2019-02-17T20:57:57.886Z,22.40
2019-02-17T21:00:29.576Z,21.70
2019-02-17T21:02:59.807Z,21.53
2019-02-17T21:05:31.523Z,21.27
2019-02-17T21:08:02.800Z,21.87
2019-02-17T21:10:33.790Z,21.60
2019-02-17T21:13:04.274Z,21.97
2019-02-17T21:15:34.876Z,21.40
2019-02-17T21:18:05.175Z,22.13
2019-02-17T21:20:35.850Z,21.77
2019-02-17T21:23:07.002Z,22.33
2019-02-17T21:25:37.580Z,23.33
2019-02-17T21:28:07.969Z,22.47
2019-02-17T21:30:38.674Z,23.73
2019-02-17T21:33:09.000Z,23.53
2019-02-17T21:35:41.336Z,23.40
2019-02-17T21:38:11.667Z,24.90
2019-02-17T21:40:42.108Z,27.50
2019-02-17T21:43:12.355Z,25.53
2019-02-17T21:45:42.633Z,26.33
2019-02-17T21:48:13.281Z,24.80
2019-02-17T21:50:43.835Z,26.50
2019-02-17T21:53:20.479Z,26.90
2019-02-17T21:55:47.848Z,26.13
2019-02-17T21:58:18.458Z,28.33
2019-02-17T22:00:49.603Z,26.80
2019-02-17T22:03:20.164Z,28.03
2019-02-17T22:05:50.520Z,28.87
2019-02-17T22:08:21.207Z,29.77
2019-02-17T22:10:51.459Z,30.67
2019-02-17T22:13:21.753Z,32.87
2019-02-17T22:15:52.282Z,36.70
2019-02-17T22:18:23.627Z,41.47
2019-02-17T22:20:53.954Z,41.90
2019-02-17T22:23:25.595Z,44.97
2019-02-17T22:25:55.932Z,46.33
2019-02-17T22:28:26.257Z,44.17
2019-02-17T22:30:56.891Z,44.20
2019-02-17T22:33:27.250Z,44.07
2019-02-17T22:35:57.569Z,44.63
2019-02-17T22:38:28.172Z,41.83
2019-02-17T22:40:58.453Z,42.53
2019-02-17T22:43:29.755Z,45.40
2019-02-17T22:46:00.366Z,41.80
2019-02-17T22:48:30.634Z,42.13
2019-02-17T22:51:00.914Z,41.13
2019-02-17T22:53:31.381Z,41.93
2019-02-17T22:56:01.628Z,43.20
2019-02-17T22:58:31.883Z,42.13
2019-02-17T23:01:04.801Z,41.47
2019-02-17T23:03:37.012Z,41.53
2019-02-17T23:06:07.941Z,42.60
2019-02-17T23:08:38.475Z,43.97
2019-02-17T23:11:09.519Z,41.90
2019-02-17T23:13:40.056Z,41.17
2019-02-17T23:16:10.709Z,41.53
2019-02-17T23:18:40.978Z,42.50
2019-02-17T23:21:11.458Z,41.20
2019-02-17T23:23:42.884Z,39.90
2019-02-17T23:26:13.441Z,41.23
2019-02-17T23:28:43.771Z,41.10
2019-02-17T23:31:15.112Z,41.70
2019-02-17T23:33:45.364Z,38.40
2019-02-17T23:36:16.131Z,40.43
2019-02-17T23:38:46.365Z,39.23
2019-02-17T23:41:16.639Z,39.53
2019-02-17T23:43:47.757Z,38.97
2019-02-17T23:46:18.012Z,39.20
2019-02-17T23:48:48.509Z,38.23
2019-02-17T23:51:18.771Z,38.23
2019-02-17T23:53:49.265Z,37.97
2019-02-17T23:56:19.547Z,37.97
2019-02-17T23:58:50.018Z,37.97
